Time;durP1;ratioP1;P1;durP2;ratioP2;P2;SDS_P1;SDS_P2;PMS_P1;PMS_P2;Temp;Humidity;BMP_temperature;BMP_pressure;BME280_temperature;BME280_humidity;BME280_pressure;Samples;Min_cycle;Max_cycle;Signal;HPM_P1;HPM_P2
2022/06/09 00:01:40;;;;;;;10.55;5.32;;;;;;;17.79;79.02;99646.69;18419245;32;20420;-66
2022/06/09 00:11:47;;;;;;;11.48;5.10;;;;;;;17.23;82.21;99645.59;18418641;32;20213;-66
2022/06/09 00:21:52;;;;;;;9.82;4.87;;;;;;;17.51;80.93;99639.97;18421968;32;20105;-67
2022/06/09 00:31:55;;;;;;;9.13;4.72;;;;;;;17.57;80.47;99631.81;18427654;32;20097;-66
2022/06/09 00:42:00;;;;;;;9.18;4.75;;;;;;;17.53;79.61;99630.19;18427205;32;20161;-66
2022/06/09 00:52:05;;;;;;;10.25;4.75;;;;;;;17.14;80.98;99617.81;18426927;32;20149;-66
2022/06/09 01:02:10;;;;;;;10.98;5.15;;;;;;;16.86;82.39;99627.69;18426287;32;20080;-66
2022/06/09 01:12:26;;;;;;;11.12;5.47;;;;;;;17.31;80.61;99620.59;18425889;32;20460;-66
2022/06/09 01:23:04;;;;;;;11.98;5.87;;;;;;;17.22;81.57;99617.50;18425752;32;20101;-66
2022/06/09 01:33:13;;;;;;;12.18;5.82;;;;;;;16.97;82.74;99616.69;18424746;32;20134;-66
2022/06/09 01:43:16;;;;;;;9.82;5.22;;;;;;;17.51;80.52;99616.22;18424751;32;20141;-66
2022/06/09 01:53:24;;;;;;;10.77;5.18;;;;;;;17.87;78.58;99604.09;18424319;32;20088;-66
2022/06/09 02:03:31;;;;;;;10.23;5.10;;;;;;;17.91;78.87;99603.03;18424725;32;20085;-66
2022/06/09 02:13:39;;;;;;;10.57;5.15;;;;;;;17.56;81.63;99608.09;18423581;32;20534;-66
2022/06/09 02:23:43;;;;;;;12.88;5.75;;;;;;;17.46;82.16;99607.66;18423346;32;20110;-66
2022/06/09 02:33:48;;;;;;;10.13;4.93;;;;;;;17.52;82.38;99606.53;18422900;32;20111;-66
2022/06/09 02:43:51;;;;;;;11.80;5.53;;;;;;;17.87;81.34;99612.00;18421657;32;20097;-66
2022/06/09 02:53:57;;;;;;;9.60;5.28;;;;;;;18.02;81.68;99621.88;18422001;32;20420;-66
2022/06/09 03:04:00;;;;;;;9.32;5.05;;;;;;;18.33;80.80;99634.63;18421768;32;20088;-66
2022/06/09 03:14:05;;;;;;;9.63;5.10;;;;;;;17.95;83.75;99628.37;18421520;32;20105;-67
2022/06/09 03:24:09;;;;;;;12.13;6.60;;;;;;;18.62;81.85;99625.31;18421091;32;20117;-66
2022/06/09 03:34:13;;;;;;;13.77;6.28;;;;;;;18.84;81.40;99626.91;18420455;32;20085;-66
2022/06/09 03:44:17;;;;;;;16.40;7.95;;;;;;;18.84;82.72;99624.28;18419866;32;20115;-66
2022/06/09 03:54:21;;;;;;;15.75;7.87;;;;;;;19.67;80.00;99624.50;18419153;32;20100;-66
2022/06/09 04:04:25;;;;;;;20.85;8.93;;;;;;;19.37;82.10;99632.28;18419004;32;20480;-67
2022/06/09 04:14:29;;;;;;;18.95;9.20;;;;;;;19.26;83.58;99636.34;18418245;32;20097;-66
2022/06/09 04:24:33;;;;;;;23.75;9.55;;;;;;;19.28;84.43;99628.28;18417978;32;20383;-66
2022/06/09 04:34:37;;;;;;;24.15;10.75;;;;;;;19.63;83.81;99630.91;18417522;32;20115;-67
2022/06/09 04:44:41;;;;;;;21.55;10.13;;;;;;;19.84;82.54;99641.31;18416915;32;20089;-66
2022/06/09 04:54:45;;;;;;;26.87;11.43;;;;;;;20.02;82.49;99641.31;18416455;32;20093;-66
2022/06/09 05:04:48;;;;;;;27.62;10.88;;;;;;;19.92;83.71;99648.88;18416873;32;20092;-67
2022/06/09 05:14:53;;;;;;;24.27;10.70;;;;;;;19.93;84.62;99656.75;18426967;32;20093;-66
2022/06/09 05:24:58;;;;;;;22.83;11.00;;;;;;;20.13;83.04;99661.94;18425293;32;20098;-66
2022/06/09 05:35:02;;;;;;;25.33;11.10;;;;;;;20.29;83.73;99668.06;18425095;32;20089;-66
2022/06/09 05:45:07;;;;;;;23.38;10.77;;;;;;;20.20;83.91;99674.75;18477396;31;20115;-66
2022/06/09 05:55:12;;;;;;;24.92;11.88;;;;;;;20.71;82.85;99675.56;18424328;32;20105;-66
2022/06/09 06:15:36;;;;;;;21.23;10.68;;;;;;;21.49;78.09;99691.44;18371153;31;20073;-66
2022/06/09 06:25:39;;;;;;;21.55;11.02;;;;;;;21.04;80.85;99695.81;18358495;32;20137;-66
2022/06/09 06:35:44;;;;;;;22.85;11.68;;;;;;;21.19;80.55;99702.91;18411063;31;20108;-66
2022/06/09 06:45:48;;;;;;;16.98;9.10;;;;;;;21.51;79.29;99703.75;18359123;32;20086;-66
2022/06/09 06:55:52;;;;;;;18.05;9.55;;;;;;;22.09;74.50;99698.53;18357597;32;20089;-66
2022/06/09 07:05:56;;;;;;;17.75;9.45;;;;;;;21.81;78.59;99700.22;18355477;32;20451;-66
2022/06/09 07:16:01;;;;;;;17.52;9.85;;;;;;;22.07;76.40;99703.97;18387322;32;20119;-66
2022/06/09 07:26:05;;;;;;;17.87;9.23;;;;;;;22.22;78.87;99715.47;18364256;32;20115;-66
2022/06/09 07:36:12;;;;;;;20.27;9.55;;;;;;;22.57;74.46;99709.78;18355511;32;20093;-66
2022/06/09 07:46:16;;;;;;;17.05;9.88;;;;;;;22.76;74.27;99699.75;18417556;32;20132;-68
2022/06/09 07:56:21;;;;;;;16.62;9.23;;;;;;;22.83;73.05;99707.22;18419308;31;20101;-67
2022/06/09 08:06:24;;;;;;;18.90;8.68;;;;;;;22.41;74.30;99707.19;18417798;32;20107;-67
2022/06/09 08:16:31;;;;;;;16.12;7.82;;;;;;;22.82;72.82;99710.00;18367559;32;20134;-67
2022/06/09 08:26:35;;;;;;;15.55;7.50;;;;;;;23.88;73.12;99700.38;18354189;31;20150;-67
2022/06/09 08:36:40;;;;;;;14.32;7.28;;;;;;;23.91;69.89;99693.03;18405729;31;20093;-67
2022/06/09 08:46:49;;;;;;;10.40;5.95;;;;;;;24.38;68.50;99689.81;18360742;32;20105;-67
2022/06/09 08:56:54;;;;;;;9.95;5.10;;;;;;;24.28;67.90;99692.25;18362338;32;20361;-67
2022/06/09 09:07:04;;;;;;;9.50;4.53;;;;;;;25.30;63.21;99681.31;18382911;32;20092;-65
2022/06/09 09:17:18;;;;;;;8.75;4.43;;;;;;;25.56;59.97;99675.84;18371213;32;20121;-66
2022/06/09 09:27:30;;;;;;;8.13;3.87;;;;;;;26.24;59.14;99645.66;18361434;32;20105;-65
2022/06/09 09:37:39;;;;;;;7.80;3.90;;;;;;;26.07;58.28;99636.28;18413607;31;20097;-66
2022/06/09 09:47:47;;;;;;;7.53;3.80;;;;;;;26.30;54.01;99622.91;18360730;32;20084;-66
2022/06/09 09:58:20;;;;;;;6.87;3.33;;;;;;;26.90;53.28;99633.22;18359122;32;20101;-66
2022/06/09 10:08:42;;;;;;;6.45;3.25;;;;;;;26.81;51.12;99637.50;18429539;31;20104;-66
2022/06/09 10:19:05;;;;;;;7.00;3.17;;;;;;;26.95;49.67;99623.00;18382235;32;20093;-67
2022/06/09 10:29:29;;;;;;;7.65;3.17;;;;;;;26.56;50.95;99627.97;18422816;32;20373;-67
2022/06/09 10:39:39;;;;;;;6.87;3.12;;;;;;;26.03;52.61;99600.91;18365222;32;20097;-67
2022/06/09 11:00:13;;;;;;;4.65;2.20;;;;;;;26.16;50.13;99605.28;18357837;32;20152;-67
2022/06/09 11:10:27;;;;;;;3.25;1.87;;;;;;;26.25;50.12;99601.03;18356348;31;20089;-67
2022/06/09 11:20:41;;;;;;;4.90;2.30;;;;;;;28.33;47.06;99562.03;18357211;32;20487;-67
2022/06/09 11:30:57;;;;;;;4.97;2.05;;;;;;;27.32;49.63;99556.53;18356921;32;20153;-67
2022/06/09 11:41:11;;;;;;;5.70;2.10;;;;;;;28.50;42.38;99547.09;18356059;32;20428;-66
2022/06/09 11:51:35;;;;;;;4.47;2.30;;;;;;;27.02;48.28;99521.56;18391021;32;20093;-67
2022/06/09 12:02:02;;;;;;;7.05;3.70;;;;;;;27.23;52.41;99516.19;18419128;32;20115;-67
2022/06/09 12:12:30;;;;;;;7.85;4.00;;;;;;;27.45;48.64;99514.31;18418572;31;20172;-67
2022/06/09 12:22:50;;;;;;;7.65;3.58;;;;;;;26.80;50.93;99514.47;18427764;32;20157;-66
2022/06/09 12:32:56;;;;;;;8.93;3.97;;;;;;;26.75;53.25;99514.88;18427744;32;20432;-67
2022/06/09 12:43:07;;;;;;;9.30;4.35;;;;;;;26.82;51.59;99509.84;18427204;32;20424;-66
2022/06/09 12:53:19;;;;;;;3.72;1.55;;;;;;;25.59;57.58;99575.91;18426987;32;20508;-66
2022/06/09 13:03:30;;;;;;;2.85;1.17;;;;;;;22.92;58.71;99591.38;18425530;32;20093;-65
2022/06/09 13:13:39;;;;;;;3.00;1.70;;;;;;;22.28;61.37;99610.56;18478808;31;20175;-65
2022/06/09 13:23:46;;;;;;;4.20;2.35;;;;;;;20.03;74.82;99605.91;18425512;32;20107;-65
2022/06/09 13:33:54;;;;;;;8.25;2.92;;;;;;;19.41;78.96;99579.13;18477733;31;20101;-65
2022/06/09 13:44:07;;;;;;;7.45;3.22;;;;;;;20.17;84.18;99568.06;18424664;32;20093;-65
2022/06/09 13:54:21;;;;;;;7.05;3.30;;;;;;;21.71;80.43;99578.62;18424456;32;20089;-65
2022/06/09 14:04:33;;;;;;;6.10;3.15;;;;;;;22.29;75.50;99621.09;18477990;31;20460;-66
2022/06/09 14:14:36;;;;;;;6.53;3.00;;;;;;;21.52;77.55;99599.25;18422539;32;20115;-65
2022/06/09 14:24:40;;;;;;;4.93;2.42;;;;;;;22.15;73.34;99603.38;18422472;32;20100;-65
2022/06/09 14:34:44;;;;;;;5.25;2.42;;;;;;;20.73;80.44;99618.84;18423126;32;20116;-65
2022/06/09 14:44:49;;;;;;;5.50;2.30;;;;;;;19.52;85.01;99663.22;18422810;32;20124;-66
2022/06/09 14:54:53;;;;;;;7.00;3.40;;;;;;;18.35;88.26;99749.00;18422459;32;20456;-66
2022/06/09 15:04:58;;;;;;;6.97;2.33;;;;;;;18.95;84.50;99727.72;18421723;32;20115;-66
2022/06/09 15:15:01;;;;;;;4.43;1.52;;;;;;;18.72;84.14;99713.81;18474343;31;20093;-66
2022/06/09 15:25:08;;;;;;;3.15;1.50;;;;;;;18.81;82.08;99666.72;18420264;32;20500;-66
2022/06/09 15:35:12;;;;;;;3.67;1.83;;;;;;;18.69;83.16;99650.53;18420355;32;20399;-66
2022/06/09 15:45:18;;;;;;;3.05;1.62;;;;;;;19.49;78.17;99668.69;18472729;31;20124;-66
2022/06/09 15:55:21;;;;;;;1.87;1.15;;;;;;;19.82;75.97;99712.91;18418097;32;20089;-66
2022/06/09 16:05:27;;;;;;;2.17;1.23;;;;;;;18.93;77.34;99686.44;18418936;32;20145;-66
2022/06/09 16:15:31;;;;;;;4.40;1.83;;;;;;;18.17;82.91;99672.34;18416037;32;73781;-66
2022/06/09 16:25:37;;;;;;;4.07;1.75;;;;;;;18.41;81.94;99677.41;18419183;32;20135;-66
2022/06/09 16:35:40;;;;;;;4.05;1.77;;;;;;;18.89;78.88;99700.72;18417903;32;20126;-66
2022/06/09 16:45:47;;;;;;;3.17;1.62;;;;;;;18.74;81.85;99673.25;18418098;32;20113;-66
2022/06/09 16:55:50;;;;;;;4.45;2.00;;;;;;;19.68;76.83;99692.44;18412649;32;20109;-66
2022/06/09 17:05:57;;;;;;;4.75;2.35;;;;;;;18.66;83.02;99703.53;18419956;32;20097;-66
2022/06/09 17:16:01;;;;;;;4.97;2.25;;;;;;;19.08;81.38;99716.59;18424850;32;20112;-66
2022/06/09 17:26:06;;;;;;;6.00;2.33;;;;;;;19.05;81.57;99736.13;18423232;32;20731;-65
2022/06/09 17:36:09;;;;;;;5.55;2.20;;;;;;;18.90;82.63;99728.88;18422926;32;20112;-66
2022/06/09 17:46:14;;;;;;;6.70;2.65;;;;;;;19.18;80.48;99728.44;18361808;32;20509;-66
2022/06/09 17:56:17;;;;;;;5.57;2.00;;;;;;;19.55;77.89;99731.03;18358992;32;20510;-66
2022/06/09 18:06:22;;;;;;;3.25;1.50;;;;;;;18.99;79.97;99731.09;18356853;32;20108;-66
2022/06/09 18:16:25;;;;;;;3.37;1.80;;;;;;;19.12;78.70;99734.03;18357845;32;20101;-66
2022/06/09 18:26:30;;;;;;;4.12;1.67;;;;;;;19.23;78.19;99742.28;18372721;32;20351;-66
2022/06/09 18:36:33;;;;;;;3.55;1.48;;;;;;;19.57;76.77;99757.44;18420547;32;20089;-66
2022/06/09 18:46:38;;;;;;;3.67;1.92;;;;;;;19.20;78.00;99774.19;18420570;32;20093;-66
2022/06/09 18:56:41;;;;;;;4.62;2.28;;;;;;;18.43;82.74;99795.31;18440611;31;20101;-66
2022/06/09 19:06:47;;;;;;;2.80;1.60;;;;;;;18.47;82.77;99789.88;18355969;32;20139;-66
2022/06/09 19:16:51;;;;;;;5.07;2.12;;;;;;;18.88;80.66;99800.38;18354060;32;20097;-66
2022/06/09 19:26:56;;;;;;;3.65;1.98;;;;;;;18.66;81.49;99811.06;18406389;31;20099;-66
2022/06/09 19:37:01;;;;;;;4.20;1.85;;;;;;;18.73;80.99;99812.47;18354609;32;20101;-66
2022/06/09 19:47:06;;;;;;;4.47;1.90;;;;;;;18.68;81.45;99809.22;18353783;32;20104;-66
2022/06/09 19:57:14;;;;;;;6.03;2.50;;;;;;;18.71;81.23;99803.78;18407597;31;20108;-66
2022/06/09 20:07:20;;;;;;;4.45;2.20;;;;;;;18.77;81.02;99815.84;18350688;32;20141;-66
2022/06/09 20:17:25;;;;;;;4.95;2.25;;;;;;;18.78;80.24;99820.22;18353903;32;20453;-66
2022/06/09 20:27:30;;;;;;;4.82;1.73;;;;;;;18.52;79.78;99823.09;18353722;32;20150;-66
2022/06/09 20:37:33;;;;;;;4.40;2.12;;;;;;;18.96;76.50;99819.34;18356603;32;20090;-66
2022/06/09 20:47:39;;;;;;;8.18;2.72;;;;;;;17.95;80.57;99822.91;18414202;31;20471;-67
2022/06/09 20:57:42;;;;;;;5.03;2.35;;;;;;;17.93;80.46;99836.16;18362048;32;20190;-66
2022/06/09 21:07:47;;;;;;;5.35;2.60;;;;;;;18.12;79.00;99843.34;18361496;31;20110;-67
2022/06/09 21:28:13;;;;;;;8.27;2.58;;;;;;;17.67;81.86;99863.66;18360027;32;20089;-66
2022/06/09 21:38:16;;;;;;;7.37;3.03;;;;;;;17.69;81.47;99897.00;18360115;32;20093;-66
2022/06/09 21:48:21;;;;;;;6.65;2.80;;;;;;;17.82;80.04;99902.59;18359335;32;20097;-66
2022/06/09 21:58:24;;;;;;;6.82;3.10;;;;;;;17.75;83.03;99920.47;18356801;32;20094;-66
2022/06/09 22:08:29;;;;;;;6.28;3.10;;;;;;;18.28;80.62;99917.50;18359511;31;20112;-66
2022/06/09 22:18:32;;;;;;;6.03;2.72;;;;;;;18.25;80.40;99915.84;18359713;32;20444;-66
2022/06/09 22:28:37;;;;;;;7.40;3.35;;;;;;;18.22;80.20;99929.19;18412121;31;20101;-66
2022/06/09 22:38:41;;;;;;;6.78;3.05;;;;;;;18.09;80.98;99934.13;18358799;32;20083;-66
2022/06/09 22:48:45;;;;;;;8.85;3.35;;;;;;;18.41;79.84;99939.00;18358478;32;20104;-66
2022/06/09 22:58:50;;;;;;;11.27;3.85;;;;;;;18.03;82.51;99945.81;18357501;32;20105;-66
2022/06/09 23:08:55;;;;;;;9.82;3.47;;;;;;;18.50;80.25;99961.56;18357716;31;20109;-67
2022/06/09 23:18:59;;;;;;;7.87;3.55;;;;;;;18.30;81.65;99953.53;18357681;32;20104;-67
2022/06/09 23:29:03;;;;;;;8.07;3.47;;;;;;;18.48;81.30;99950.16;18357143;32;20136;-66
2022/06/09 23:39:06;;;;;;;7.53;3.30;;;;;;;18.29;82.45;99943.00;18356986;32;20102;-66
2022/06/09 23:49:11;;;;;;;9.05;3.50;;;;;;;18.71;80.45;99947.41;18356389;32;20129;-67
2022/06/09 23:59:14;;;;;;;8.13;3.08;;;;;;;18.61;80.97;99940.81;18355956;32;20748;-67
